createdAt,value
2019-05-05T00:04:37.791Z,6.53
2019-05-05T00:09:42.493Z,14.47
2019-05-05T00:14:56.799Z,7.50
2019-05-05T00:20:01.562Z,7.97
2019-05-05T00:25:07.042Z,7.33
2019-05-05T00:30:11.610Z,9.17
2019-05-05T00:35:16.653Z,10.23
2019-05-05T00:40:21.979Z,9.23
2019-05-05T00:45:27.415Z,10.77
2019-05-05T00:50:34.227Z,9.13
2019-05-05T00:55:38.529Z,9.70
2019-05-05T01:01:02.173Z,9.68
2019-05-05T01:06:15.691Z,12.73
2019-05-05T01:11:20.532Z,7.23
2019-05-05T01:16:26.843Z,11.27
2019-05-05T01:21:31.772Z,11.80
2019-05-05T01:26:36.362Z,14.40
2019-05-05T01:31:41.707Z,15.67
2019-05-05T01:36:48.024Z,9.37
2019-05-05T01:41:56.535Z,10.50
2019-05-05T01:47:01.638Z,10.47
2019-05-05T01:52:06.131Z,13.53
2019-05-05T01:57:10.590Z,11.73
2019-05-05T02:02:15.308Z,11.70
2019-05-05T02:07:20.005Z,21.17
2019-05-05T02:12:24.800Z,15.90
2019-05-05T02:17:29.689Z,14.80
2019-05-05T02:22:35.641Z,15.08
2019-05-05T02:27:40.790Z,15.77
2019-05-05T02:32:48.577Z,19.37
2019-05-05T02:37:55.577Z,24.67
2019-05-05T02:42:59.557Z,15.10
2019-05-05T02:48:15.571Z,20.30
2019-05-05T02:53:25.317Z,20.40
2019-05-05T02:58:33.841Z,15.03
2019-05-05T03:03:39.632Z,20.93
2019-05-05T03:08:45.190Z,18.27
2019-05-05T03:13:53.567Z,18.17
2019-05-05T03:18:58.515Z,17.60
2019-05-05T03:24:03.809Z,19.40
2019-05-05T03:29:11.198Z,19.67
2019-05-05T03:34:16.571Z,17.97
2019-05-05T03:39:25.472Z,17.27
2019-05-05T03:44:37.248Z,16.27
2019-05-05T03:49:45.183Z,16.43
2019-05-05T03:54:50.157Z,15.87
2019-05-05T03:59:54.935Z,15.63
2019-05-05T04:05:04.612Z,20.40
2019-05-05T04:10:09.476Z,17.90
2019-05-05T04:15:14.643Z,17.30
2019-05-05T04:20:33.960Z,16.23
2019-05-05T04:25:38.519Z,23.27
2019-05-05T04:30:44.525Z,19.12
2019-05-05T04:35:49.056Z,18.70
2019-05-05T04:40:54.160Z,17.10
2019-05-05T04:45:59.207Z,18.97
2019-05-05T04:51:13.905Z,16.10
2019-05-05T04:56:18.737Z,13.60
2019-05-05T05:01:24.222Z,13.20
2019-05-05T05:06:39.147Z,13.03
2019-05-05T05:11:44.360Z,11.70
2019-05-05T05:16:49.310Z,16.63
2019-05-05T05:22:01.311Z,15.53
2019-05-05T05:27:04.997Z,19.23
2019-05-05T05:32:09.489Z,22.47
2019-05-05T05:37:14.128Z,20.90
2019-05-05T05:42:19.079Z,25.45
2019-05-05T05:47:31.273Z,22.97
2019-05-05T05:52:36.208Z,23.00
2019-05-05T05:57:59.859Z,17.90
2019-05-05T06:03:05.218Z,18.23
2019-05-05T06:08:10.087Z,16.73
2019-05-05T06:13:15.890Z,12.37
2019-05-05T06:18:20.752Z,11.20
2019-05-05T06:23:25.727Z,12.80
2019-05-05T06:28:30.632Z,15.87
2019-05-05T06:33:35.386Z,15.50
2019-05-05T06:38:40.504Z,37.67
2019-05-05T06:44:03.917Z,31.77
2019-05-05T06:49:09.822Z,10.47
2019-05-05T06:54:14.603Z,11.83
2019-05-05T06:59:20.385Z,10.80
2019-05-05T07:04:25.212Z,10.80
2019-05-05T07:09:33.592Z,7.73
2019-05-05T07:14:38.400Z,9.70
2019-05-05T07:19:46.213Z,7.37
2019-05-05T07:24:50.973Z,7.07
2019-05-05T07:29:56.020Z,6.13
2019-05-05T07:35:24.652Z,8.13
2019-05-05T07:40:29.467Z,8.87
2019-05-05T07:45:34.387Z,6.47
2019-05-05T07:50:39.067Z,6.13
2019-05-05T07:55:44.408Z,8.33
2019-05-05T08:00:49.197Z,22.37
2019-05-05T08:05:54.868Z,17.97
2019-05-05T08:11:00.340Z,14.57
2019-05-05T08:16:08.592Z,13.13
2019-05-05T08:21:14.779Z,9.23
2019-05-05T08:26:35.411Z,12.73
2019-05-05T08:31:49.934Z,12.43
2019-05-05T08:36:55.995Z,5.70
2019-05-05T08:42:04.103Z,6.27
2019-05-05T08:47:08.238Z,6.50
2019-05-05T08:52:14.476Z,6.93
2019-05-05T08:57:19.598Z,6.33
2019-05-05T09:02:24.093Z,5.23
2019-05-05T09:07:30.453Z,6.30
2019-05-05T09:12:35.596Z,4.50
2019-05-05T09:17:40.158Z,4.80
2019-05-05T09:22:45.620Z,4.80
2019-05-05T09:28:07.767Z,2.70
2019-05-05T09:33:14.207Z,3.97
2019-05-05T09:38:19.172Z,3.10
2019-05-05T09:43:26.687Z,7.13
2019-05-05T09:48:33.426Z,10.73
2019-05-05T09:53:37.628Z,1.90
2019-05-05T09:58:44.044Z,3.07
2019-05-05T10:03:48.607Z,6.07
2019-05-05T10:08:53.821Z,3.37
2019-05-05T10:13:58.918Z,2.60
2019-05-05T10:19:04.607Z,8.85
2019-05-05T10:24:28.581Z,4.47
2019-05-05T10:29:30.366Z,3.50
2019-05-05T10:34:35.048Z,2.77
2019-05-05T10:39:44.555Z,2.13
2019-05-05T10:44:50.006Z,2.10
2019-05-05T10:49:54.850Z,3.40
2019-05-05T10:55:00.098Z,2.05
2019-05-05T11:00:12.331Z,4.97
2019-05-05T11:05:12.343Z,1.77
2019-05-05T11:10:20.886Z,5.23
2019-05-05T11:15:25.823Z,4.20
2019-05-05T11:20:30.983Z,4.45
2019-05-05T11:25:36.271Z,9.43
2019-05-05T11:30:42.945Z,5.33
2019-05-05T11:36:14.356Z,7.60
2019-05-05T11:41:19.401Z,2.80
2019-05-05T11:46:24.854Z,5.33
2019-05-05T11:51:30.684Z,4.03
2019-05-05T11:56:36.730Z,4.13
2019-05-05T12:01:44.013Z,7.80
2019-05-05T12:06:50.125Z,2.83
2019-05-05T12:11:55.541Z,6.60
2019-05-05T12:17:00.144Z,7.45
2019-05-05T12:22:04.779Z,2.00
2019-05-05T12:27:33.921Z,7.87
2019-05-05T12:32:38.642Z,5.50
2019-05-05T12:37:44.521Z,4.17
2019-05-05T12:42:49.822Z,4.57
2019-05-05T12:48:14.950Z,5.97
2019-05-05T12:53:19.717Z,3.50
2019-05-05T12:58:25.978Z,6.13
2019-05-05T13:03:31.495Z,2.97
2019-05-05T13:08:36.419Z,4.40
2019-05-05T13:13:41.031Z,3.57
2019-05-05T13:18:45.931Z,2.57
2019-05-05T13:23:59.721Z,3.73
2019-05-05T13:29:04.447Z,5.57
2019-05-05T13:34:10.285Z,3.07
2019-05-05T13:39:16.036Z,2.10
2019-05-05T13:44:29.883Z,2.53
2019-05-05T13:49:40.219Z,2.80
2019-05-05T13:54:44.971Z,6.30
2019-05-05T13:59:49.703Z,5.00
2019-05-05T14:04:55.443Z,3.53
2019-05-05T14:10:00.845Z,3.60
2019-05-05T14:15:07.968Z,6.80
2019-05-05T14:20:14.682Z,6.03
2019-05-05T14:25:27.540Z,4.00
2019-05-05T14:31:01.359Z,0.73
2019-05-05T14:36:24.746Z,2.77
2019-05-05T14:41:29.731Z,3.70
2019-05-05T14:46:34.890Z,1.83
2019-05-05T14:51:40.019Z,14.50
2019-05-05T14:56:45.370Z,3.50
2019-05-05T15:01:51.022Z,2.33
2019-05-05T15:07:08.893Z,13.63
2019-05-05T15:12:44.984Z,9.40
2019-05-05T15:17:49.699Z,3.80
2019-05-05T15:22:54.884Z,1.70
2019-05-05T15:28:00.963Z,5.37
2019-05-05T15:33:06.002Z,2.03
2019-05-05T15:38:10.333Z,2.80
2019-05-05T15:43:14.916Z,2.67
2019-05-05T15:48:20.226Z,3.17
2019-05-05T15:53:26.693Z,2.50
2019-05-05T15:58:34.093Z,1.90
2019-05-05T16:03:43.567Z,10.47
2019-05-05T16:08:48.453Z,7.07
2019-05-05T16:19:27.928Z,4.83
2019-05-05T16:24:36.495Z,2.00
2019-05-05T16:29:44.189Z,1.90
2019-05-05T16:34:49.199Z,2.43
2019-05-05T16:39:54.400Z,4.43
2019-05-05T16:44:59.545Z,1.73
2019-05-05T16:50:05.179Z,3.60
2019-05-05T16:55:27.898Z,3.13
2019-05-05T17:00:36.149Z,2.27
2019-05-05T17:05:41.082Z,2.08
2019-05-05T17:10:46.286Z,1.27
2019-05-05T17:16:13.464Z,2.10
2019-05-05T17:21:21.658Z,6.93
2019-05-05T17:26:29.462Z,2.27
2019-05-05T17:31:35.556Z,2.70
2019-05-05T17:36:46.355Z,3.00
2019-05-05T17:42:17.522Z,0.87
2019-05-05T17:47:29.895Z,13.03
2019-05-05T17:52:56.678Z,11.17
2019-05-05T17:58:02.633Z,12.00
2019-05-05T18:03:07.322Z,8.60
2019-05-05T18:08:30.699Z,16.07
2019-05-05T18:13:40.738Z,8.93
2019-05-05T18:18:46.452Z,19.03
2019-05-05T18:23:51.178Z,8.83
2019-05-05T18:28:57.667Z,7.85
2019-05-05T18:34:04.016Z,5.30
2019-05-05T18:39:09.422Z,3.40
2019-05-05T18:44:27.320Z,7.23
2019-05-05T18:49:33.696Z,26.73
2019-05-05T18:54:39.046Z,26.30
2019-05-05T18:59:44.731Z,18.57
2019-05-05T19:04:55.715Z,13.83
2019-05-05T19:10:01.388Z,4.20
2019-05-05T19:15:06.059Z,2.20
2019-05-05T19:20:35.077Z,2.72
2019-05-05T19:25:40.207Z,4.23
2019-05-05T19:30:45.355Z,1.77
2019-05-05T19:35:50.581Z,2.03
2019-05-05T19:40:56.256Z,2.47
2019-05-05T19:46:02.062Z,3.23
2019-05-05T19:51:10.517Z,6.58
2019-05-05T19:56:15.354Z,1.70
2019-05-05T20:01:34.167Z,3.00
2019-05-05T20:06:27.641Z,7.30
2019-05-05T20:11:34.019Z,1.93
2019-05-05T20:17:04.392Z,3.67
2019-05-05T20:22:09.493Z,5.37
2019-05-05T20:27:14.269Z,2.53
2019-05-05T20:32:24.453Z,3.67
2019-05-05T20:37:37.840Z,2.77
2019-05-05T20:42:44.777Z,1.67
2019-05-05T20:47:50.766Z,2.47
2019-05-05T20:52:55.832Z,4.20
2019-05-05T20:58:00.835Z,2.93
2019-05-05T21:03:05.369Z,5.93
2019-05-05T21:08:10.531Z,2.08
2019-05-05T21:13:15.300Z,2.93
2019-05-05T21:18:19.911Z,7.05
2019-05-05T21:23:28.618Z,2.77
2019-05-05T21:28:33.693Z,3.93
2019-05-05T21:33:38.533Z,4.97
2019-05-05T21:38:43.990Z,5.63
2019-05-05T21:43:49.427Z,4.40
2019-05-05T21:48:54.486Z,3.03
2019-05-05T21:54:17.037Z,4.20
2019-05-05T21:59:23.537Z,4.80
2019-05-05T22:04:27.856Z,5.90
2019-05-05T22:09:32.199Z,4.37
2019-05-05T22:14:37.369Z,4.13
2019-05-05T22:19:47.932Z,7.90
2019-05-05T22:24:54.048Z,4.20
2019-05-05T22:30:09.403Z,8.37
2019-05-05T22:35:07.022Z,5.13
2019-05-05T22:40:20.109Z,8.00
2019-05-05T22:45:24.784Z,5.93
2019-05-05T22:50:30.556Z,5.55
2019-05-05T22:55:35.138Z,4.17
2019-05-05T23:00:43.799Z,3.90
2019-05-05T23:05:55.797Z,4.10
2019-05-05T23:11:00.311Z,4.90
2019-05-05T23:16:14.744Z,6.00
2019-05-05T23:21:28.116Z,5.07
2019-05-05T23:26:36.948Z,4.70
2019-05-05T23:31:44.511Z,6.03
2019-05-05T23:36:49.513Z,5.57
2019-05-05T23:41:54.835Z,3.87
2019-05-05T23:47:00.647Z,6.40
2019-05-05T23:52:06.816Z,5.33
2019-05-05T23:57:14.341Z,5.20
